Eugenopolis, Brazil
Current Conditions -  °F | °C
As of 3:00 PM on Friday 26 Dec 2014 (Local Time) from SBCP Reporting Station
Clear Clear  
Wind Chill: 90°   Ceiling: Unl
Heat Index: 92°   Visibility: 6mi
Dew Point: 66°   Wind: 21mph
Humidity: 46%   Direction: 80°E
Pressure: 30.03"   Gusts: NA
Location:  21.1°S, 42.19°W
Report Text: SBCP 261700Z 08018KT CAVOK 32/19 Q1017
Loading
Personal Weather Stations






























Interactive Weather Map New forecast layout! Learn more

10-Day Weather Forecast

Advertisements
Track Severe Weather on mobile